sensor_id;sensor_type;location;lat;lon;timestamp;pressure;altitude;pressure_sealevel;temperature;humidity
54924;BME280;40825;52.270;20.984;2023-03-14T00:02:03;98943.83;;;9.63;67.11
54924;BME280;40825;52.270;20.984;2023-03-14T00:04:28;98938.88;;;9.61;67.07
54924;BME280;40825;52.270;20.984;2023-03-14T00:06:54;98948.38;;;9.61;67.20
54924;BME280;40825;52.270;20.984;2023-03-14T00:09:19;98946.31;;;9.59;67.18
54924;BME280;40825;52.270;20.984;2023-03-14T00:11:45;98937.28;;;9.58;67.21
54924;BME280;40825;52.270;20.984;2023-03-14T00:14:11;98938.77;;;9.56;67.18
54924;BME280;40825;52.270;20.984;2023-03-14T00:16:37;98931.65;;;9.55;66.96
54924;BME280;40825;52.270;20.984;2023-03-14T00:19:02;98921.17;;;9.56;67.13
54924;BME280;40825;52.270;20.984;2023-03-14T00:21:28;98928.05;;;9.54;67.10
54924;BME280;40825;52.270;20.984;2023-03-14T00:23:53;98918.82;;;9.50;67.15
54924;BME280;40825;52.270;20.984;2023-03-14T00:26:20;98916.45;;;9.46;67.18
54924;BME280;40825;52.270;20.984;2023-03-14T00:28:50;98926.60;;;9.43;67.55
54924;BME280;40825;52.270;20.984;2023-03-14T00:31:16;98914.86;;;9.37;67.81
54924;BME280;40825;52.270;20.984;2023-03-14T00:33:43;98906.28;;;9.30;67.96
54924;BME280;40825;52.270;20.984;2023-03-14T00:36:12;98900.20;;;9.26;67.99
54924;BME280;40825;52.270;20.984;2023-03-14T00:38:39;98898.97;;;9.22;68.25
54924;BME280;40825;52.270;20.984;2023-03-14T00:41:16;98897.67;;;9.18;68.38
54924;BME280;40825;52.270;20.984;2023-03-14T00:43:43;98901.34;;;9.14;68.61
54924;BME280;40825;52.270;20.984;2023-03-14T00:46:09;98894.59;;;9.09;68.52
54924;BME280;40825;52.270;20.984;2023-03-14T00:48:35;98890.66;;;9.08;68.62
54924;BME280;40825;52.270;20.984;2023-03-14T00:51:02;98886.56;;;9.04;68.64
54924;BME280;40825;52.270;20.984;2023-03-14T00:53:28;98879.34;;;9.02;68.79
54924;BME280;40825;52.270;20.984;2023-03-14T00:55:53;98867.70;;;8.97;68.90
54924;BME280;40825;52.270;20.984;2023-03-14T00:58:19;98861.83;;;8.94;68.94
54924;BME280;40825;52.270;20.984;2023-03-14T01:00:45;98860.65;;;8.89;68.98
54924;BME280;40825;52.270;20.984;2023-03-14T01:03:12;98862.96;;;8.87;69.04
54924;BME280;40825;52.270;20.984;2023-03-14T01:05:38;98861.71;;;8.85;68.93
54924;BME280;40825;52.270;20.984;2023-03-14T01:08:04;98859.26;;;8.80;69.09
54924;BME280;40825;52.270;20.984;2023-03-14T01:10:32;98857.60;;;8.77;69.00
54924;BME280;40825;52.270;20.984;2023-03-14T01:12:57;98856.16;;;8.73;68.93
54924;BME280;40825;52.270;20.984;2023-03-14T01:15:23;98853.35;;;8.72;69.00
54924;BME280;40825;52.270;20.984;2023-03-14T01:17:48;98854.52;;;8.69;69.10
54924;BME280;40825;52.270;20.984;2023-03-14T01:20:15;98862.06;;;8.65;69.26
54924;BME280;40825;52.270;20.984;2023-03-14T01:22:42;98856.49;;;8.61;69.37
54924;BME280;40825;52.270;20.984;2023-03-14T01:25:11;98856.61;;;8.58;69.42
54924;BME280;40825;52.270;20.984;2023-03-14T01:27:37;98851.56;;;8.53;69.50
54924;BME280;40825;52.270;20.984;2023-03-14T01:30:03;98857.27;;;8.49;69.58
54924;BME280;40825;52.270;20.984;2023-03-14T01:32:30;98851.95;;;8.46;69.54
54924;BME280;40825;52.270;20.984;2023-03-14T01:34:55;98850.98;;;8.44;69.60
54924;BME280;40825;52.270;20.984;2023-03-14T01:37:21;98849.81;;;8.42;69.55
54924;BME280;40825;52.270;20.984;2023-03-14T01:39:47;98844.95;;;8.40;69.69
54924;BME280;40825;52.270;20.984;2023-03-14T01:42:13;98844.52;;;8.37;69.75
54924;BME280;40825;52.270;20.984;2023-03-14T01:44:57;98838.29;;;8.33;69.85
54924;BME280;40825;52.270;20.984;2023-03-14T01:47:23;98842.80;;;8.30;69.87
54924;BME280;40825;52.270;20.984;2023-03-14T01:50:02;98849.13;;;8.28;69.85
54924;BME280;40825;52.270;20.984;2023-03-14T01:52:33;98848.94;;;8.25;69.94
54924;BME280;40825;52.270;20.984;2023-03-14T01:55:18;98844.61;;;8.23;69.88
54924;BME280;40825;52.270;20.984;2023-03-14T01:57:48;98845.40;;;8.21;69.88
54924;BME280;40825;52.270;20.984;2023-03-14T02:00:19;98843.13;;;8.19;69.90
54924;BME280;40825;52.270;20.984;2023-03-14T02:02:55;98839.45;;;8.17;69.88
54924;BME280;40825;52.270;20.984;2023-03-14T02:05:25;98836.89;;;8.14;69.85
54924;BME280;40825;52.270;20.984;2023-03-14T02:07:54;98832.48;;;8.12;69.85
54924;BME280;40825;52.270;20.984;2023-03-14T02:10:22;98830.54;;;8.11;69.80
54924;BME280;40825;52.270;20.984;2023-03-14T02:12:50;98824.86;;;8.10;69.81
54924;BME280;40825;52.270;20.984;2023-03-14T02:15:17;98823.05;;;8.08;69.76
54924;BME280;40825;52.270;20.984;2023-03-14T02:17:44;98817.78;;;8.05;69.88
54924;BME280;40825;52.270;20.984;2023-03-14T02:22:48;98807.84;;;7.98;69.90
54924;BME280;40825;52.270;20.984;2023-03-14T02:25:16;98810.39;;;7.95;70.03
54924;BME280;40825;52.270;20.984;2023-03-14T02:27:47;98805.42;;;7.92;69.97
54924;BME280;40825;52.270;20.984;2023-03-14T02:30:19;98801.71;;;7.90;70.05
54924;BME280;40825;52.270;20.984;2023-03-14T02:32:47;98798.78;;;7.87;70.15
54924;BME280;40825;52.270;20.984;2023-03-14T02:35:17;98791.58;;;7.82;70.19
54924;BME280;40825;52.270;20.984;2023-03-14T02:37:49;98788.45;;;7.78;70.20
54924;BME280;40825;52.270;20.984;2023-03-14T02:40:17;98780.57;;;7.76;70.13
54924;BME280;40825;52.270;20.984;2023-03-14T02:42:43;98769.88;;;7.76;70.16
54924;BME280;40825;52.270;20.984;2023-03-14T02:47:34;98749.16;;;7.73;69.93
54924;BME280;40825;52.270;20.984;2023-03-14T02:50:07;98748.35;;;7.72;69.77
54924;BME280;40825;52.270;20.984;2023-03-14T02:52:33;98753.86;;;7.72;69.74
54924;BME280;40825;52.270;20.984;2023-03-14T02:54:59;98751.41;;;7.71;69.54
54924;BME280;40825;52.270;20.984;2023-03-14T02:57:24;98750.11;;;7.71;69.52
54924;BME280;40825;52.270;20.984;2023-03-14T02:59:50;98751.59;;;7.69;69.33
54924;BME280;40825;52.270;20.984;2023-03-14T03:02:16;98750.45;;;7.70;69.26
54924;BME280;40825;52.270;20.984;2023-03-14T03:04:41;98746.81;;;7.69;69.22
54924;BME280;40825;52.270;20.984;2023-03-14T03:07:07;98740.68;;;7.70;68.91
54924;BME280;40825;52.270;20.984;2023-03-14T03:09:33;98738.84;;;7.70;68.85
54924;BME280;40825;52.270;20.984;2023-03-14T03:11:58;98739.73;;;7.72;68.54
54924;BME280;40825;52.270;20.984;2023-03-14T03:14:24;98741.89;;;7.74;68.43
54924;BME280;40825;52.270;20.984;2023-03-14T03:16:50;98748.98;;;7.77;68.48
54924;BME280;40825;52.270;20.984;2023-03-14T03:19:15;98753.30;;;7.77;68.40
54924;BME280;40825;52.270;20.984;2023-03-14T03:21:43;98756.02;;;7.76;68.40
54924;BME280;40825;52.270;20.984;2023-03-14T03:24:09;98756.60;;;7.73;68.43
54924;BME280;40825;52.270;20.984;2023-03-14T03:26:35;98751.75;;;7.69;68.41
54924;BME280;40825;52.270;20.984;2023-03-14T03:29:01;98749.07;;;7.67;68.47
54924;BME280;40825;52.270;20.984;2023-03-14T03:31:26;98749.46;;;7.64;68.18
54924;BME280;40825;52.270;20.984;2023-03-14T03:33:52;98744.52;;;7.63;68.28
54924;BME280;40825;52.270;20.984;2023-03-14T03:36:23;98741.52;;;7.61;68.07
54924;BME280;40825;52.270;20.984;2023-03-14T03:38:50;98737.25;;;7.60;68.09
54924;BME280;40825;52.270;20.984;2023-03-14T03:41:16;98741.31;;;7.59;68.19
54924;BME280;40825;52.270;20.984;2023-03-14T03:43:42;98739.69;;;7.56;68.18
54924;BME280;40825;52.270;20.984;2023-03-14T03:46:07;98737.02;;;7.54;68.09
54924;BME280;40825;52.270;20.984;2023-03-14T03:48:34;98735.80;;;7.51;68.21
54924;BME280;40825;52.270;20.984;2023-03-14T03:50:59;98737.44;;;7.48;68.09
54924;BME280;40825;52.270;20.984;2023-03-14T03:53:25;98742.36;;;7.46;68.09
54924;BME280;40825;52.270;20.984;2023-03-14T03:55:51;98740.37;;;7.45;68.05
54924;BME280;40825;52.270;20.984;2023-03-14T03:58:16;98734.00;;;7.44;68.02
54924;BME280;40825;52.270;20.984;2023-03-14T04:00:42;98735.52;;;7.41;67.98
54924;BME280;40825;52.270;20.984;2023-03-14T04:03:07;98739.52;;;7.42;68.04
54924;BME280;40825;52.270;20.984;2023-03-14T04:05:33;98737.58;;;7.41;67.92
54924;BME280;40825;52.270;20.984;2023-03-14T04:08:00;98744.30;;;7.41;67.92
54924;BME280;40825;52.270;20.984;2023-03-14T04:10:25;98739.81;;;7.40;67.95
54924;BME280;40825;52.270;20.984;2023-03-14T04:12:51;98737.25;;;7.40;67.82
54924;BME280;40825;52.270;20.984;2023-03-14T04:15:17;98742.95;;;7.40;67.88
54924;BME280;40825;52.270;20.984;2023-03-14T04:17:43;98742.92;;;7.39;68.03
54924;BME280;40825;52.270;20.984;2023-03-14T04:20:09;98748.36;;;7.37;68.04
54924;BME280;40825;52.270;20.984;2023-03-14T04:22:37;98748.29;;;7.35;68.03
54924;BME280;40825;52.270;20.984;2023-03-14T04:25:04;98740.74;;;7.33;67.87
54924;BME280;40825;52.270;20.984;2023-03-14T04:27:29;98739.04;;;7.33;67.88
54924;BME280;40825;52.270;20.984;2023-03-14T04:29:55;98736.29;;;7.32;67.79
54924;BME280;40825;52.270;20.984;2023-03-14T04:32:21;98737.27;;;7.30;67.88
54924;BME280;40825;52.270;20.984;2023-03-14T04:34:47;98739.02;;;7.27;67.89
54924;BME280;40825;52.270;20.984;2023-03-14T04:37:13;98737.59;;;7.25;68.01
54924;BME280;40825;52.270;20.984;2023-03-14T04:39:38;98740.54;;;7.23;67.98
54924;BME280;40825;52.270;20.984;2023-03-14T04:42:04;98740.75;;;7.21;68.07
54924;BME280;40825;52.270;20.984;2023-03-14T04:44:29;98732.75;;;7.20;68.08
54924;BME280;40825;52.270;20.984;2023-03-14T04:46:55;98724.14;;;7.19;68.19
54924;BME280;40825;52.270;20.984;2023-03-14T04:49:21;98721.00;;;7.18;68.13
54924;BME280;40825;52.270;20.984;2023-03-14T04:51:46;98713.98;;;7.19;68.24
54924;BME280;40825;52.270;20.984;2023-03-14T04:54:12;98703.84;;;7.20;68.20
54924;BME280;40825;52.270;20.984;2023-03-14T04:56:37;98696.45;;;7.19;68.15
54924;BME280;40825;52.270;20.984;2023-03-14T04:59:04;98687.34;;;7.21;68.01
54924;BME280;40825;52.270;20.984;2023-03-14T05:01:29;98689.66;;;7.25;67.69
54924;BME280;40825;52.270;20.984;2023-03-14T05:03:55;98685.05;;;7.30;67.60
54924;BME280;40825;52.270;20.984;2023-03-14T05:06:20;98681.61;;;7.33;67.65
54924;BME280;40825;52.270;20.984;2023-03-14T05:08:46;98682.16;;;7.37;67.57
54924;BME280;40825;52.270;20.984;2023-03-14T05:11:11;98678.06;;;7.41;67.42
54924;BME280;40825;52.270;20.984;2023-03-14T05:13:38;98676.50;;;7.46;67.20
54924;BME280;40825;52.270;20.984;2023-03-14T05:16:09;98670.13;;;7.50;66.76
54924;BME280;40825;52.270;20.984;2023-03-14T05:18:34;98665.77;;;7.55;66.73
54924;BME280;40825;52.270;20.984;2023-03-14T05:21:00;98657.97;;;7.60;66.34
54924;BME280;40825;52.270;20.984;2023-03-14T05:23:26;98657.11;;;7.66;65.80
54924;BME280;40825;52.270;20.984;2023-03-14T05:25:52;98660.30;;;7.70;65.80
54924;BME280;40825;52.270;20.984;2023-03-14T05:28:18;98662.50;;;7.72;65.57
54924;BME280;40825;52.270;20.984;2023-03-14T05:30:43;98666.27;;;7.74;65.57
54924;BME280;40825;52.270;20.984;2023-03-14T05:33:09;98671.02;;;7.76;65.64
54924;BME280;40825;52.270;20.984;2023-03-14T05:35:34;98663.00;;;7.77;65.56
54924;BME280;40825;52.270;20.984;2023-03-14T05:38:00;98652.91;;;7.80;65.21
54924;BME280;40825;52.270;20.984;2023-03-14T05:40:25;98645.16;;;7.85;64.97
54924;BME280;40825;52.270;20.984;2023-03-14T05:42:51;98639.93;;;7.88;65.10
54924;BME280;40825;52.270;20.984;2023-03-14T05:45:17;98636.69;;;7.91;64.95
54924;BME280;40825;52.270;20.984;2023-03-14T05:47:43;98630.34;;;7.97;64.44
54924;BME280;40825;52.270;20.984;2023-03-14T05:50:09;98623.82;;;8.08;63.82
54924;BME280;40825;52.270;20.984;2023-03-14T05:52:35;98621.06;;;8.19;63.74
54924;BME280;40825;52.270;20.984;2023-03-14T05:55:01;98617.48;;;8.30;63.41
54924;BME280;40825;52.270;20.984;2023-03-14T05:57:26;98611.48;;;8.54;63.37
54924;BME280;40825;52.270;20.984;2023-03-14T05:59:52;98601.23;;;8.77;62.71
54924;BME280;40825;52.270;20.984;2023-03-14T06:02:17;98607.66;;;8.97;61.63
54924;BME280;40825;52.270;20.984;2023-03-14T06:04:43;98590.54;;;9.18;60.86
54924;BME280;40825;52.270;20.984;2023-03-14T06:07:08;98586.41;;;9.38;60.80
54924;BME280;40825;52.270;20.984;2023-03-14T06:09:34;98580.09;;;9.54;60.22
54924;BME280;40825;52.270;20.984;2023-03-14T06:11:59;98583.48;;;9.69;59.87
54924;BME280;40825;52.270;20.984;2023-03-14T06:14:25;98576.31;;;9.73;58.76
54924;BME280;40825;52.270;20.984;2023-03-14T06:16:50;98574.52;;;9.64;58.95
54924;BME280;40825;52.270;20.984;2023-03-14T06:19:16;98580.14;;;9.54;59.44
54924;BME280;40825;52.270;20.984;2023-03-14T06:21:42;98574.27;;;9.43;59.07
54924;BME280;40825;52.270;20.984;2023-03-14T06:24:07;98578.80;;;9.34;59.34
54924;BME280;40825;52.270;20.984;2023-03-14T06:26:36;98574.98;;;9.30;59.33
54924;BME280;40825;52.270;20.984;2023-03-14T06:29:01;98581.64;;;9.31;59.58
54924;BME280;40825;52.270;20.984;2023-03-14T06:31:32;98588.48;;;9.29;59.61
54924;BME280;40825;52.270;20.984;2023-03-14T06:33:58;98590.33;;;9.22;59.58
54924;BME280;40825;52.270;20.984;2023-03-14T06:36:25;98592.58;;;9.16;59.77
54924;BME280;40825;52.270;20.984;2023-03-14T06:38:50;98587.30;;;9.20;59.83
54924;BME280;40825;52.270;20.984;2023-03-14T06:41:16;98582.91;;;9.19;59.98
54924;BME280;40825;52.270;20.984;2023-03-14T06:43:41;98585.32;;;9.20;59.77
54924;BME280;40825;52.270;20.984;2023-03-14T06:46:07;98591.26;;;9.36;59.47
54924;BME280;40825;52.270;20.984;2023-03-14T06:48:34;98585.45;;;9.58;59.12
54924;BME280;40825;52.270;20.984;2023-03-14T06:50:59;98582.91;;;9.93;58.28
54924;BME280;40825;52.270;20.984;2023-03-14T06:53:25;98576.42;;;10.50;57.25
54924;BME280;40825;52.270;20.984;2023-03-14T06:55:51;98578.16;;;10.79;56.24
54924;BME280;40825;52.270;20.984;2023-03-14T06:58:16;98569.30;;;10.71;55.60
54924;BME280;40825;52.270;20.984;2023-03-14T07:00:42;98568.17;;;10.65;55.91
54924;BME280;40825;52.270;20.984;2023-03-14T07:03:08;98570.05;;;10.66;56.72
54924;BME280;40825;52.270;20.984;2023-03-14T07:05:38;98571.80;;;10.70;56.45
54924;BME280;40825;52.270;20.984;2023-03-14T07:08:07;98583.29;;;10.73;56.84
54924;BME280;40825;52.270;20.984;2023-03-14T07:10:35;98601.35;;;10.83;56.50
54924;BME280;40825;52.270;20.984;2023-03-14T07:13:01;98605.89;;;10.89;56.73
54924;BME280;40825;52.270;20.984;2023-03-14T07:15:26;98612.01;;;10.91;56.49
54924;BME280;40825;52.270;20.984;2023-03-14T07:17:52;98610.70;;;10.84;55.73
54924;BME280;40825;52.270;20.984;2023-03-14T07:20:17;98607.46;;;10.82;55.89
54924;BME280;40825;52.270;20.984;2023-03-14T07:22:43;98611.71;;;10.87;56.21
54924;BME280;40825;52.270;20.984;2023-03-14T07:25:09;98619.63;;;10.98;56.34
54924;BME280;40825;52.270;20.984;2023-03-14T07:27:37;98615.02;;;11.22;55.81
54924;BME280;40825;52.270;20.984;2023-03-14T07:30:03;98608.80;;;11.51;55.56
54924;BME280;40825;52.270;20.984;2023-03-14T07:32:28;98606.25;;;11.72;54.82
54924;BME280;40825;52.270;20.984;2023-03-14T07:34:54;98608.08;;;11.99;55.07
54924;BME280;40825;52.270;20.984;2023-03-14T07:37:19;98607.63;;;12.27;54.52
54924;BME280;40825;52.270;20.984;2023-03-14T07:39:45;98607.84;;;12.56;54.84
54924;BME280;40825;52.270;20.984;2023-03-14T07:42:10;98614.31;;;12.78;52.86
54924;BME280;40825;52.270;20.984;2023-03-14T07:44:36;98606.17;;;12.68;52.70
54924;BME280;40825;52.270;20.984;2023-03-14T07:47:01;98614.09;;;12.71;52.47
54924;BME280;40825;52.270;20.984;2023-03-14T07:49:27;98614.83;;;12.67;52.12
54924;BME280;40825;52.270;20.984;2023-03-14T07:51:53;98611.70;;;12.65;52.33
54924;BME280;40825;52.270;20.984;2023-03-14T07:54:19;98600.06;;;12.58;52.89
54924;BME280;40825;52.270;20.984;2023-03-14T07:56:45;98595.52;;;12.69;52.19
54924;BME280;40825;52.270;20.984;2023-03-14T07:59:10;98598.20;;;12.74;51.96
54924;BME280;40825;52.270;20.984;2023-03-14T08:01:37;98596.01;;;12.88;52.41
54924;BME280;40825;52.270;20.984;2023-03-14T08:04:03;98597.63;;;13.05;51.57
54924;BME280;40825;52.270;20.984;2023-03-14T08:06:29;98602.06;;;13.13;51.63
54924;BME280;40825;52.270;20.984;2023-03-14T08:08:55;98603.82;;;13.18;51.49
54924;BME280;40825;52.270;20.984;2023-03-14T08:11:20;98604.41;;;13.24;50.87
54924;BME280;40825;52.270;20.984;2023-03-14T08:13:46;98609.98;;;13.39;50.89
54924;BME280;40825;52.270;20.984;2023-03-14T08:16:16;98615.36;;;13.58;51.03
54924;BME280;40825;52.270;20.984;2023-03-14T08:18:42;98616.41;;;13.62;50.11
54924;BME280;40825;52.270;20.984;2023-03-14T08:21:08;98618.29;;;13.61;50.57
54924;BME280;40825;52.270;20.984;2023-03-14T08:23:36;98616.46;;;13.55;50.48
54924;BME280;40825;52.270;20.984;2023-03-14T08:26:01;98614.75;;;13.55;50.45
54924;BME280;40825;52.270;20.984;2023-03-14T08:28:27;98610.85;;;13.64;50.71
54924;BME280;40825;52.270;20.984;2023-03-14T08:30:57;98612.46;;;13.64;49.88
54924;BME280;40825;52.270;20.984;2023-03-14T08:33:23;98614.48;;;13.61;50.70
54924;BME280;40825;52.270;20.984;2023-03-14T08:35:55;98623.45;;;13.57;50.38
54924;BME280;40825;52.270;20.984;2023-03-14T08:38:21;98630.16;;;13.56;50.34
54924;BME280;40825;52.270;20.984;2023-03-14T08:40:47;98626.15;;;13.48;50.09
54924;BME280;40825;52.270;20.984;2023-03-14T08:43:12;98618.98;;;13.49;50.19
54924;BME280;40825;52.270;20.984;2023-03-14T08:45:38;98621.78;;;13.51;50.10
54924;BME280;40825;52.270;20.984;2023-03-14T08:48:04;98623.80;;;13.59;50.24
54924;BME280;40825;52.270;20.984;2023-03-14T08:50:29;98619.25;;;13.68;49.82
54924;BME280;40825;52.270;20.984;2023-03-14T08:52:55;98612.91;;;13.78;49.82
54924;BME280;40825;52.270;20.984;2023-03-14T08:55:20;98608.04;;;13.89;49.52
54924;BME280;40825;52.270;20.984;2023-03-14T08:57:46;98608.57;;;14.04;49.35
54924;BME280;40825;52.270;20.984;2023-03-14T09:00:12;98615.48;;;14.18;48.69
54924;BME280;40825;52.270;20.984;2023-03-14T09:02:40;98610.79;;;14.23;48.36
54924;BME280;40825;52.270;20.984;2023-03-14T09:05:06;98595.69;;;14.32;48.42
54924;BME280;40825;52.270;20.984;2023-03-14T09:07:32;98596.98;;;14.41;48.23
54924;BME280;40825;52.270;20.984;2023-03-14T09:09:58;98601.75;;;14.49;48.34
54924;BME280;40825;52.270;20.984;2023-03-14T09:12:23;98598.77;;;14.46;48.35
54924;BME280;40825;52.270;20.984;2023-03-14T09:14:49;98599.39;;;14.41;48.36
54924;BME280;40825;52.270;20.984;2023-03-14T09:17:14;98598.13;;;14.34;48.05
54924;BME280;40825;52.270;20.984;2023-03-14T09:19:40;98592.13;;;14.27;48.28
54924;BME280;40825;52.270;20.984;2023-03-14T09:22:06;98590.11;;;14.30;48.18
54924;BME280;40825;52.270;20.984;2023-03-14T09:24:32;98588.31;;;14.35;48.43
54924;BME280;40825;52.270;20.984;2023-03-14T09:26:58;98580.33;;;14.40;48.09
54924;BME280;40825;52.270;20.984;2023-03-14T09:29:23;98581.30;;;14.54;48.46
54924;BME280;40825;52.270;20.984;2023-03-14T09:31:49;98576.77;;;14.66;47.90
54924;BME280;40825;52.270;20.984;2023-03-14T09:34:15;98574.80;;;14.69;47.56
54924;BME280;40825;52.270;20.984;2023-03-14T09:36:40;98570.98;;;14.76;47.79
54924;BME280;40825;52.270;20.984;2023-03-14T09:39:06;98561.58;;;14.91;47.68
54924;BME280;40825;52.270;20.984;2023-03-14T09:41:41;98563.00;;;15.07;47.61
54924;BME280;40825;52.270;20.984;2023-03-14T09:44:15;98562.85;;;15.16;47.20
54924;BME280;40825;52.270;20.984;2023-03-14T09:46:44;98558.78;;;15.26;46.83
54924;BME280;40825;52.270;20.984;2023-03-14T09:49:26;98558.56;;;15.23;46.51
54924;BME280;40825;52.270;20.984;2023-03-14T09:51:54;98551.14;;;15.21;46.32
54924;BME280;40825;52.270;20.984;2023-03-14T09:54:26;98545.39;;;15.27;45.87
54924;BME280;40825;52.270;20.984;2023-03-14T09:56:55;98538.41;;;15.34;45.99
54924;BME280;40825;52.270;20.984;2023-03-14T09:59:20;98533.17;;;15.49;46.26
54924;BME280;40825;52.270;20.984;2023-03-14T10:01:46;98526.99;;;15.63;45.69
54924;BME280;40825;52.270;20.984;2023-03-14T10:04:20;98522.86;;;15.64;45.14
54924;BME280;40825;52.270;20.984;2023-03-14T10:06:48;98522.41;;;15.71;45.33
54924;BME280;40825;52.270;20.984;2023-03-14T10:09:20;98521.25;;;15.85;45.26
54924;BME280;40825;52.270;20.984;2023-03-14T10:11:53;98518.40;;;15.94;44.77
54924;BME280;40825;52.270;20.984;2023-03-14T10:14:32;98524.63;;;15.90;44.88
54924;BME280;40825;52.270;20.984;2023-03-14T10:17:05;98528.84;;;15.94;45.14
54924;BME280;40825;52.270;20.984;2023-03-14T10:19:32;98526.64;;;15.94;45.29
54924;BME280;40825;52.270;20.984;2023-03-14T10:22:01;98523.95;;;15.82;45.19
54924;BME280;40825;52.270;20.984;2023-03-14T10:24:34;98530.48;;;15.73;45.55
54924;BME280;40825;52.270;20.984;2023-03-14T10:27:08;98525.59;;;15.65;45.71
54924;BME280;40825;52.270;20.984;2023-03-14T10:29:53;98518.02;;;15.60;45.63
54924;BME280;40825;52.270;20.984;2023-03-14T10:32:21;98522.52;;;15.60;45.89
54924;BME280;40825;52.270;20.984;2023-03-14T10:37:34;98517.38;;;15.54;46.08
54924;BME280;40825;52.270;20.984;2023-03-14T10:40:03;98516.08;;;15.50;46.11
54924;BME280;40825;52.270;20.984;2023-03-14T10:42:39;98513.87;;;15.55;46.26
54924;BME280;40825;52.270;20.984;2023-03-14T10:47:58;98501.65;;;16.03;45.56
54924;BME280;40825;52.270;20.984;2023-03-14T10:50:28;98505.28;;;16.23;44.97
54924;BME280;40825;52.270;20.984;2023-03-14T10:52:56;98503.22;;;16.30;44.57
54924;BME280;40825;52.270;20.984;2023-03-14T10:55:24;98503.62;;;16.21;44.76
54924;BME280;40825;52.270;20.984;2023-03-14T10:57:51;98498.07;;;16.09;45.28
54924;BME280;40825;52.270;20.984;2023-03-14T11:00:22;98500.02;;;16.01;45.38
54924;BME280;40825;52.270;20.984;2023-03-14T11:03:03;98501.34;;;15.89;45.41
54924;BME280;40825;52.270;20.984;2023-03-14T11:05:41;98500.60;;;15.79;45.62
54924;BME280;40825;52.270;20.984;2023-03-14T11:10:48;98500.90;;;15.65;45.85
54924;BME280;40825;52.270;20.984;2023-03-14T11:31:43;98528.39;;;14.78;47.33
54924;BME280;40825;52.270;20.984;2023-03-14T11:34:22;98531.63;;;14.70;47.62
54924;BME280;40825;52.270;20.984;2023-03-14T11:37:09;98519.95;;;14.64;47.82
54924;BME280;40825;52.270;20.984;2023-03-14T11:39:41;98509.78;;;14.56;47.79
54924;BME280;40825;52.270;20.984;2023-03-14T11:42:14;98510.80;;;14.56;47.92
54924;BME280;40825;52.270;20.984;2023-03-14T11:44:41;98512.05;;;14.48;48.11
54924;BME280;40825;52.270;20.984;2023-03-14T11:52:48;98505.77;;;14.26;48.62
54924;BME280;40825;52.270;20.984;2023-03-14T11:55:32;98505.98;;;14.28;48.83
54924;BME280;40825;52.270;20.984;2023-03-14T11:58:02;98517.17;;;14.36;48.94
54924;BME280;40825;52.270;20.984;2023-03-14T12:00:34;98526.45;;;14.46;48.77
54924;BME280;40825;52.270;20.984;2023-03-14T12:03:12;98526.05;;;14.54;48.74
54924;BME280;40825;52.270;20.984;2023-03-14T12:14:29;98508.85;;;14.87;48.92
54924;BME280;40825;52.270;20.984;2023-03-14T12:20:03;98496.09;;;15.26;48.13
54924;BME280;40825;52.270;20.984;2023-03-14T12:22:36;98510.98;;;15.29;48.10
54924;BME280;40825;52.270;20.984;2023-03-14T12:25:20;98515.39;;;15.20;48.23
54924;BME280;40825;52.270;20.984;2023-03-14T12:28:33;98521.19;;;15.07;48.41
54924;BME280;40825;52.270;20.984;2023-03-14T12:30:35;98514.56;;;14.96;48.73
54924;BME280;40825;52.270;20.984;2023-03-14T12:35:39;98515.90;;;14.72;49.33
54924;BME280;40825;52.270;20.984;2023-03-14T12:38:09;98522.41;;;14.61;49.60
54924;BME280;40825;52.270;20.984;2023-03-14T12:40:54;98529.37;;;14.50;49.82
54924;BME280;40825;52.270;20.984;2023-03-14T12:43:30;98521.80;;;14.39;50.23
54924;BME280;40825;52.270;20.984;2023-03-14T12:46:26;98518.49;;;14.30;50.41
54924;BME280;40825;52.270;20.984;2023-03-14T12:56:35;98549.78;;;14.08;52.88
54924;BME280;40825;52.270;20.984;2023-03-14T13:04:45;98553.96;;;13.57;57.03
54924;BME280;40825;52.270;20.984;2023-03-14T13:07:30;98557.27;;;13.37;57.76
54924;BME280;40825;52.270;20.984;2023-03-14T13:12:54;98564.77;;;12.92;60.50
54924;BME280;40825;52.270;20.984;2023-03-14T13:17:51;98560.66;;;12.54;63.78
54924;BME280;40825;52.270;20.984;2023-03-14T13:20:27;98560.16;;;12.40;62.62
54924;BME280;40825;52.270;20.984;2023-03-14T13:22:53;98559.06;;;12.29;64.79
54924;BME280;40825;52.270;20.984;2023-03-14T13:25:19;98557.16;;;12.22;64.03
54924;BME280;40825;52.270;20.984;2023-03-14T13:27:46;98556.39;;;12.12;66.60
54924;BME280;40825;52.270;20.984;2023-03-14T13:30:22;98560.08;;;12.02;66.92
54924;BME280;40825;52.270;20.984;2023-03-14T13:32:50;98561.16;;;11.92;66.07
54924;BME280;40825;52.270;20.984;2023-03-14T13:37:47;98567.43;;;11.81;67.69
54924;BME280;40825;52.270;20.984;2023-03-14T13:40:24;98568.91;;;11.78;66.08
54924;BME280;40825;52.270;20.984;2023-03-14T13:43:00;98568.13;;;11.75;66.94
54924;BME280;40825;52.270;20.984;2023-03-14T13:45:26;98567.41;;;11.69;68.69
54924;BME280;40825;52.270;20.984;2023-03-14T13:47:52;98567.98;;;11.61;70.03
54924;BME280;40825;52.270;20.984;2023-03-14T13:50:18;98561.92;;;11.51;70.33
54924;BME280;40825;52.270;20.984;2023-03-14T13:52:44;98561.73;;;11.44;69.93
54924;BME280;40825;52.270;20.984;2023-03-14T13:55:16;98559.96;;;11.38;71.02
54924;BME280;40825;52.270;20.984;2023-03-14T13:57:51;98555.12;;;11.33;71.94
54924;BME280;40825;52.270;20.984;2023-03-14T14:02:47;98551.00;;;11.22;72.13
54924;BME280;40825;52.270;20.984;2023-03-14T14:05:13;98550.22;;;11.17;73.53
54924;BME280;40825;52.270;20.984;2023-03-14T14:07:40;98549.38;;;11.12;72.87
54924;BME280;40825;52.270;20.984;2023-03-14T14:10:12;98546.15;;;11.08;75.76
54924;BME280;40825;52.270;20.984;2023-03-14T14:12:58;98545.02;;;11.05;74.13
54924;BME280;40825;52.270;20.984;2023-03-14T14:15:30;98545.58;;;11.02;76.37